sensor_id;sensor_type;location;lat;lon;timestamp;P1;durP1;ratioP1;P2;durP2;ratioP2
1799;SDS011;919;48.274;12.292;2022-07-06T00:02:09;3.13;;;2.90;;
1799;SDS011;919;48.274;12.292;2022-07-06T00:04:36;3.03;;;2.83;;
1799;SDS011;919;48.274;12.292;2022-07-06T00:07:03;3.67;;;3.30;;
1799;SDS011;919;48.274;12.292;2022-07-06T00:09:31;5.53;;;3.67;;
1799;SDS011;919;48.274;12.292;2022-07-06T00:11:58;5.83;;;3.17;;
1799;SDS011;919;48.274;12.292;2022-07-06T00:14:24;4.20;;;3.37;;
1799;SDS011;919;48.274;12.292;2022-07-06T00:16:51;4.07;;;2.97;;
1799;SDS011;919;48.274;12.292;2022-07-06T00:19:18;3.30;;;3.10;;
1799;SDS011;919;48.274;12.292;2022-07-06T00:21:45;3.43;;;3.23;;
1799;SDS011;919;48.274;12.292;2022-07-06T00:24:11;3.30;;;3.00;;
1799;SDS011;919;48.274;12.292;2022-07-06T00:26:40;3.70;;;3.40;;
1799;SDS011;919;48.274;12.292;2022-07-06T00:29:06;3.43;;;3.13;;
1799;SDS011;919;48.274;12.292;2022-07-06T00:31:33;4.20;;;3.90;;
1799;SDS011;919;48.274;12.292;2022-07-06T00:34:00;3.37;;;3.17;;
1799;SDS011;919;48.274;12.292;2022-07-06T00:36:26;3.57;;;3.37;;
1799;SDS011;919;48.274;12.292;2022-07-06T00:38:53;3.60;;;3.33;;
1799;SDS011;919;48.274;12.292;2022-07-06T00:41:20;3.80;;;3.50;;
1799;SDS011;919;48.274;12.292;2022-07-06T00:43:49;4.00;;;3.50;;
1799;SDS011;919;48.274;12.292;2022-07-06T00:46:17;2.90;;;2.70;;
1799;SDS011;919;48.274;12.292;2022-07-06T00:48:45;3.80;;;3.50;;
1799;SDS011;919;48.274;12.292;2022-07-06T00:51:12;3.80;;;3.50;;
1799;SDS011;919;48.274;12.292;2022-07-06T00:53:39;4.23;;;3.83;;
1799;SDS011;919;48.274;12.292;2022-07-06T00:56:06;3.67;;;3.37;;
1799;SDS011;919;48.274;12.292;2022-07-06T00:58:34;4.30;;;3.90;;
1799;SDS011;919;48.274;12.292;2022-07-06T01:01:02;3.57;;;2.63;;
1799;SDS011;919;48.274;12.292;2022-07-06T01:03:29;6.50;;;3.17;;
1799;SDS011;919;48.274;12.292;2022-07-06T01:05:55;4.17;;;3.77;;
1799;SDS011;919;48.274;12.292;2022-07-06T01:08:22;3.17;;;2.87;;
1799;SDS011;919;48.274;12.292;2022-07-06T01:10:49;4.10;;;3.80;;
1799;SDS011;919;48.274;12.292;2022-07-06T01:13:16;6.30;;;3.37;;
1799;SDS011;919;48.274;12.292;2022-07-06T01:15:43;3.80;;;3.50;;
1799;SDS011;919;48.274;12.292;2022-07-06T01:18:11;3.70;;;3.40;;
1799;SDS011;919;48.274;12.292;2022-07-06T01:20:40;3.83;;;3.40;;
1799;SDS011;919;48.274;12.292;2022-07-06T01:23:06;3.60;;;3.13;;
1799;SDS011;919;48.274;12.292;2022-07-06T01:25:33;3.47;;;2.73;;
1799;SDS011;919;48.274;12.292;2022-07-06T01:28:00;2.70;;;2.53;;
1799;SDS011;919;48.274;12.292;2022-07-06T01:30:27;4.40;;;3.50;;
1799;SDS011;919;48.274;12.292;2022-07-06T01:32:54;3.63;;;3.43;;
1799;SDS011;919;48.274;12.292;2022-07-06T01:35:20;3.63;;;3.37;;
1799;SDS011;919;48.274;12.292;2022-07-06T01:37:49;3.00;;;2.80;;
1799;SDS011;919;48.274;12.292;2022-07-06T01:40:16;3.70;;;3.50;;
1799;SDS011;919;48.274;12.292;2022-07-06T01:42:43;2.70;;;2.50;;
1799;SDS011;919;48.274;12.292;2022-07-06T01:45:10;3.50;;;3.20;;
1799;SDS011;919;48.274;12.292;2022-07-06T01:47:37;4.93;;;3.20;;
1799;SDS011;919;48.274;12.292;2022-07-06T01:50:04;3.70;;;3.50;;
1799;SDS011;919;48.274;12.292;2022-07-06T01:52:32;3.47;;;3.27;;
1799;SDS011;919;48.274;12.292;2022-07-06T01:55:00;3.83;;;3.30;;
1799;SDS011;919;48.274;12.292;2022-07-06T01:57:27;3.00;;;2.80;;
1799;SDS011;919;48.274;12.292;2022-07-06T01:59:54;3.10;;;2.90;;
1799;SDS011;919;48.274;12.292;2022-07-06T02:02:20;3.13;;;2.93;;
1799;SDS011;919;48.274;12.292;2022-07-06T02:04:47;3.17;;;2.87;;
1799;SDS011;919;48.274;12.292;2022-07-06T02:07:14;2.73;;;2.53;;
1799;SDS011;919;48.274;12.292;2022-07-06T02:09:41;4.97;;;3.47;;
1799;SDS011;919;48.274;12.292;2022-07-06T02:12:09;3.00;;;2.70;;
1799;SDS011;919;48.274;12.292;2022-07-06T02:14:35;3.47;;;3.27;;
1799;SDS011;919;48.274;12.292;2022-07-06T02:17:02;3.47;;;3.20;;
1799;SDS011;919;48.274;12.292;2022-07-06T02:19:29;3.37;;;2.30;;
1799;SDS011;919;48.274;12.292;2022-07-06T02:21:56;2.97;;;2.77;;
1799;SDS011;919;48.274;12.292;2022-07-06T02:24:22;2.90;;;2.70;;
1799;SDS011;919;48.274;12.292;2022-07-06T02:26:49;3.37;;;3.17;;
1799;SDS011;919;48.274;12.292;2022-07-06T02:29:17;3.83;;;3.40;;
1799;SDS011;919;48.274;12.292;2022-07-06T02:31:44;3.20;;;2.80;;
1799;SDS011;919;48.274;12.292;2022-07-06T02:34:11;4.03;;;3.17;;
1799;SDS011;919;48.274;12.292;2022-07-06T02:36:38;2.90;;;2.70;;
1799;SDS011;919;48.274;12.292;2022-07-06T02:39:05;3.20;;;3.00;;
1799;SDS011;919;48.274;12.292;2022-07-06T02:41:31;3.10;;;2.90;;
1799;SDS011;919;48.274;12.292;2022-07-06T02:43:58;4.27;;;3.00;;
1799;SDS011;919;48.274;12.292;2022-07-06T02:46:26;3.57;;;3.07;;
1799;SDS011;919;48.274;12.292;2022-07-06T02:48:53;4.40;;;3.20;;
1799;SDS011;919;48.274;12.292;2022-07-06T02:51:19;4.10;;;3.33;;
1799;SDS011;919;48.274;12.292;2022-07-06T02:53:46;3.37;;;3.07;;
1799;SDS011;919;48.274;12.292;2022-07-06T02:56:13;3.83;;;3.53;;
1799;SDS011;919;48.274;12.292;2022-07-06T02:58:39;3.70;;;3.40;;
1799;SDS011;919;48.274;12.292;2022-07-06T03:01:06;3.87;;;3.57;;
1799;SDS011;919;48.274;12.292;2022-07-06T03:03:34;3.37;;;3.07;;
1799;SDS011;919;48.274;12.292;2022-07-06T03:06:01;3.50;;;3.20;;
1799;SDS011;919;48.274;12.292;2022-07-06T03:08:28;4.87;;;3.67;;
1799;SDS011;919;48.274;12.292;2022-07-06T03:10:54;5.27;;;3.20;;
1799;SDS011;919;48.274;12.292;2022-07-06T03:13:21;3.70;;;3.47;;
1799;SDS011;919;48.274;12.292;2022-07-06T03:15:48;3.63;;;3.20;;
1799;SDS011;919;48.274;12.292;2022-07-06T03:18:14;3.10;;;2.90;;
1799;SDS011;919;48.274;12.292;2022-07-06T03:20:42;3.53;;;3.27;;
1799;SDS011;919;48.274;12.292;2022-07-06T03:23:09;4.00;;;3.60;;
1799;SDS011;919;48.274;12.292;2022-07-06T03:25:36;3.30;;;3.10;;
1799;SDS011;919;48.274;12.292;2022-07-06T03:28:03;3.77;;;3.47;;
1799;SDS011;919;48.274;12.292;2022-07-06T03:30:30;3.40;;;3.10;;
1799;SDS011;919;48.274;12.292;2022-07-06T03:32:56;3.30;;;3.10;;
1799;SDS011;919;48.274;12.292;2022-07-06T03:35:23;3.63;;;3.33;;
1799;SDS011;919;48.274;12.292;2022-07-06T03:37:51;3.50;;;3.30;;
1799;SDS011;919;48.274;12.292;2022-07-06T03:40:18;3.87;;;3.17;;
1799;SDS011;919;48.274;12.292;2022-07-06T03:42:45;3.47;;;3.17;;
1799;SDS011;919;48.274;12.292;2022-07-06T03:45:11;4.13;;;3.37;;
1799;SDS011;919;48.274;12.292;2022-07-06T03:47:38;10.93;;;2.80;;
1799;SDS011;919;48.274;12.292;2022-07-06T03:50:05;3.67;;;3.37;;
1799;SDS011;919;48.274;12.292;2022-07-06T03:52:34;3.93;;;3.50;;
1799;SDS011;919;48.274;12.292;2022-07-06T03:55:06;21.67;;;5.63;;
1799;SDS011;919;48.274;12.292;2022-07-06T03:57:34;3.30;;;3.03;;
1799;SDS011;919;48.274;12.292;2022-07-06T04:00:00;2.83;;;2.63;;
1799;SDS011;919;48.274;12.292;2022-07-06T04:02:27;2.93;;;2.73;;
1799;SDS011;919;48.274;12.292;2022-07-06T04:04:54;3.23;;;3.03;;
1799;SDS011;919;48.274;12.292;2022-07-06T04:07:20;6.00;;;2.60;;
1799;SDS011;919;48.274;12.292;2022-07-06T04:09:47;3.10;;;2.90;;
1799;SDS011;919;48.274;12.292;2022-07-06T04:12:15;2.83;;;2.50;;
1799;SDS011;919;48.274;12.292;2022-07-06T04:14:42;2.70;;;2.50;;
1799;SDS011;919;48.274;12.292;2022-07-06T04:17:09;2.60;;;2.50;;
1799;SDS011;919;48.274;12.292;2022-07-06T04:19:49;4.17;;;2.50;;
1799;SDS011;919;48.274;12.292;2022-07-06T04:22:16;2.07;;;1.97;;
1799;SDS011;919;48.274;12.292;2022-07-06T04:24:43;2.50;;;2.33;;
1799;SDS011;919;48.274;12.292;2022-07-06T04:27:09;2.60;;;2.40;;
1799;SDS011;919;48.274;12.292;2022-07-06T04:29:38;2.73;;;2.53;;
1799;SDS011;919;48.274;12.292;2022-07-06T04:32:04;2.47;;;2.37;;
1799;SDS011;919;48.274;12.292;2022-07-06T04:34:32;2.30;;;2.20;;
1799;SDS011;919;48.274;12.292;2022-07-06T04:36:59;2.50;;;2.40;;
1799;SDS011;919;48.274;12.292;2022-07-06T04:39:25;3.23;;;3.03;;
1799;SDS011;919;48.274;12.292;2022-07-06T04:41:52;3.83;;;3.53;;
1799;SDS011;919;48.274;12.292;2022-07-06T04:44:19;5.83;;;2.97;;
1799;SDS011;919;48.274;12.292;2022-07-06T04:46:47;2.90;;;2.70;;
1799;SDS011;919;48.274;12.292;2022-07-06T04:49:14;2.93;;;2.73;;
1799;SDS011;919;48.274;12.292;2022-07-06T04:51:40;2.90;;;2.70;;
1799;SDS011;919;48.274;12.292;2022-07-06T04:54:07;2.77;;;2.50;;
1799;SDS011;919;48.274;12.292;2022-07-06T04:56:34;3.10;;;2.90;;
1799;SDS011;919;48.274;12.292;2022-07-06T04:59:00;3.27;;;3.00;;
1799;SDS011;919;48.274;12.292;2022-07-06T05:01:27;3.27;;;3.07;;
1799;SDS011;919;48.274;12.292;2022-07-06T05:03:55;3.07;;;2.87;;
1799;SDS011;919;48.274;12.292;2022-07-06T05:06:22;3.20;;;3.00;;
1799;SDS011;919;48.274;12.292;2022-07-06T05:08:49;5.43;;;2.80;;
1799;SDS011;919;48.274;12.292;2022-07-06T05:11:15;2.90;;;2.63;;
1799;SDS011;919;48.274;12.292;2022-07-06T05:13:42;2.20;;;2.10;;
1799;SDS011;919;48.274;12.292;2022-07-06T05:16:09;5.10;;;2.70;;
1799;SDS011;919;48.274;12.292;2022-07-06T05:18:36;2.80;;;2.20;;
1799;SDS011;919;48.274;12.292;2022-07-06T05:21:04;2.77;;;2.57;;
1799;SDS011;919;48.274;12.292;2022-07-06T05:23:31;2.40;;;2.30;;
1799;SDS011;919;48.274;12.292;2022-07-06T05:25:57;2.97;;;2.77;;
1799;SDS011;919;48.274;12.292;2022-07-06T05:28:24;2.97;;;2.73;;
1799;SDS011;919;48.274;12.292;2022-07-06T05:30:51;2.00;;;1.90;;
1799;SDS011;919;48.274;12.292;2022-07-06T05:33:18;2.53;;;2.33;;
1799;SDS011;919;48.274;12.292;2022-07-06T05:35:44;2.40;;;2.20;;
1799;SDS011;919;48.274;12.292;2022-07-06T05:38:12;2.53;;;2.33;;
1799;SDS011;919;48.274;12.292;2022-07-06T05:40:39;2.37;;;2.27;;
1799;SDS011;919;48.274;12.292;2022-07-06T05:43:06;2.20;;;2.10;;
1799;SDS011;919;48.274;12.292;2022-07-06T05:45:33;2.30;;;2.20;;
1799;SDS011;919;48.274;12.292;2022-07-06T05:48:00;2.23;;;2.13;;
1799;SDS011;919;48.274;12.292;2022-07-06T05:50:44;2.73;;;2.30;;
1799;SDS011;919;48.274;12.292;2022-07-06T05:53:12;2.40;;;2.30;;
1799;SDS011;919;48.274;12.292;2022-07-06T05:55:39;3.70;;;2.63;;
1799;SDS011;919;48.274;12.292;2022-07-06T05:58:06;2.10;;;2.00;;
1799;SDS011;919;48.274;12.292;2022-07-06T06:00:32;2.10;;;1.90;;
1799;SDS011;919;48.274;12.292;2022-07-06T06:02:59;2.17;;;2.00;;
1799;SDS011;919;48.274;12.292;2022-07-06T06:05:26;2.83;;;2.63;;
1799;SDS011;919;48.274;12.292;2022-07-06T06:07:53;2.80;;;2.60;;
1799;SDS011;919;48.274;12.292;2022-07-06T06:10:21;2.50;;;2.30;;
1799;SDS011;919;48.274;12.292;2022-07-06T06:12:48;2.60;;;2.50;;
1799;SDS011;919;48.274;12.292;2022-07-06T06:15:15;2.93;;;2.73;;
1799;SDS011;919;48.274;12.292;2022-07-06T06:17:42;2.50;;;2.30;;
1799;SDS011;919;48.274;12.292;2022-07-06T06:20:10;2.33;;;2.10;;
1799;SDS011;919;48.274;12.292;2022-07-06T06:22:45;3.40;;;2.87;;
1799;SDS011;919;48.274;12.292;2022-07-06T06:25:15;2.50;;;2.40;;
1799;SDS011;919;48.274;12.292;2022-07-06T06:27:45;2.77;;;2.50;;
1799;SDS011;919;48.274;12.292;2022-07-06T06:30:12;2.60;;;2.40;;
1799;SDS011;919;48.274;12.292;2022-07-06T06:32:39;2.67;;;2.47;;
1799;SDS011;919;48.274;12.292;2022-07-06T06:35:06;2.90;;;2.70;;
1799;SDS011;919;48.274;12.292;2022-07-06T06:37:34;3.80;;;2.50;;
1799;SDS011;919;48.274;12.292;2022-07-06T06:40:00;2.37;;;2.27;;
1799;SDS011;919;48.274;12.292;2022-07-06T06:42:27;2.77;;;2.57;;
1799;SDS011;919;48.274;12.292;2022-07-06T06:44:55;3.47;;;3.13;;
1799;SDS011;919;48.274;12.292;2022-07-06T06:47:22;3.00;;;2.30;;
1799;SDS011;919;48.274;12.292;2022-07-06T06:49:49;2.97;;;2.77;;
1799;SDS011;919;48.274;12.292;2022-07-06T06:52:16;2.70;;;2.33;;
1799;SDS011;919;48.274;12.292;2022-07-06T06:54:42;2.80;;;2.60;;
1799;SDS011;919;48.274;12.292;2022-07-06T06:57:09;3.70;;;2.80;;
1799;SDS011;919;48.274;12.292;2022-07-06T06:59:36;2.63;;;2.30;;
1799;SDS011;919;48.274;12.292;2022-07-06T07:02:04;2.77;;;2.60;;
1799;SDS011;919;48.274;12.292;2022-07-06T07:04:31;2.60;;;2.50;;
1799;SDS011;919;48.274;12.292;2022-07-06T07:06:57;2.83;;;2.63;;
1799;SDS011;919;48.274;12.292;2022-07-06T07:09:24;2.23;;;2.10;;
1799;SDS011;919;48.274;12.292;2022-07-06T07:11:51;2.60;;;2.40;;
1799;SDS011;919;48.274;12.292;2022-07-06T07:14:18;3.10;;;2.90;;
1799;SDS011;919;48.274;12.292;2022-07-06T07:16:44;3.77;;;3.10;;
1799;SDS011;919;48.274;12.292;2022-07-06T07:19:12;3.30;;;3.10;;
1799;SDS011;919;48.274;12.292;2022-07-06T07:21:39;3.33;;;3.07;;
1799;SDS011;919;48.274;12.292;2022-07-06T07:24:06;5.17;;;3.07;;
1799;SDS011;919;48.274;12.292;2022-07-06T07:26:33;3.27;;;2.83;;
1799;SDS011;919;48.274;12.292;2022-07-06T07:29:00;3.17;;;2.97;;
1799;SDS011;919;48.274;12.292;2022-07-06T07:31:26;6.43;;;2.70;;
1799;SDS011;919;48.274;12.292;2022-07-06T07:33:53;3.10;;;2.90;;
1799;SDS011;919;48.274;12.292;2022-07-06T07:36:23;3.37;;;3.17;;
1799;SDS011;919;48.274;12.292;2022-07-06T07:38:50;3.47;;;3.17;;
1799;SDS011;919;48.274;12.292;2022-07-06T07:41:17;3.40;;;2.60;;
1799;SDS011;919;48.274;12.292;2022-07-06T07:43:44;3.43;;;2.80;;
1799;SDS011;919;48.274;12.292;2022-07-06T07:46:10;3.17;;;2.97;;
1799;SDS011;919;48.274;12.292;2022-07-06T07:48:37;3.40;;;2.87;;
1799;SDS011;919;48.274;12.292;2022-07-06T07:51:04;3.23;;;2.70;;
1799;SDS011;919;48.274;12.292;2022-07-06T07:53:32;3.10;;;2.80;;
1799;SDS011;919;48.274;12.292;2022-07-06T07:55:59;3.33;;;3.13;;
1799;SDS011;919;48.274;12.292;2022-07-06T07:58:25;2.90;;;2.70;;
1799;SDS011;919;48.274;12.292;2022-07-06T08:00:52;2.93;;;2.73;;
1799;SDS011;919;48.274;12.292;2022-07-06T08:03:19;3.77;;;3.33;;
1799;SDS011;919;48.274;12.292;2022-07-06T08:05:46;3.30;;;3.00;;
1799;SDS011;919;48.274;12.292;2022-07-06T08:08:13;3.97;;;3.33;;
1799;SDS011;919;48.274;12.292;2022-07-06T08:10:41;3.97;;;3.60;;
1799;SDS011;919;48.274;12.292;2022-07-06T08:13:08;3.20;;;2.83;;
1799;SDS011;919;48.274;12.292;2022-07-06T08:15:35;3.00;;;2.80;;
1799;SDS011;919;48.274;12.292;2022-07-06T08:18:02;5.10;;;3.33;;
1799;SDS011;919;48.274;12.292;2022-07-06T08:20:29;3.17;;;2.97;;
1799;SDS011;919;48.274;12.292;2022-07-06T08:22:56;3.43;;;3.23;;
1799;SDS011;919;48.274;12.292;2022-07-06T08:25:23;3.60;;;3.30;;
1799;SDS011;919;48.274;12.292;2022-07-06T08:27:51;5.70;;;3.00;;
1799;SDS011;919;48.274;12.292;2022-07-06T08:30:18;3.47;;;3.17;;
1799;SDS011;919;48.274;12.292;2022-07-06T08:32:44;3.70;;;3.40;;
1799;SDS011;919;48.274;12.292;2022-07-06T08:35:11;3.57;;;3.23;;
1799;SDS011;919;48.274;12.292;2022-07-06T08:37:38;3.50;;;3.20;;
1799;SDS011;919;48.274;12.292;2022-07-06T08:40:06;3.47;;;3.27;;
1799;SDS011;919;48.274;12.292;2022-07-06T08:42:33;4.10;;;3.03;;
1799;SDS011;919;48.274;12.292;2022-07-06T08:45:04;3.67;;;3.37;;
1799;SDS011;919;48.274;12.292;2022-07-06T08:47:33;3.53;;;3.33;;
1799;SDS011;919;48.274;12.292;2022-07-06T08:50:02;5.73;;;3.90;;
1799;SDS011;919;48.274;12.292;2022-07-06T08:52:30;3.30;;;3.10;;
1799;SDS011;919;48.274;12.292;2022-07-06T08:54:57;3.57;;;3.23;;
1799;SDS011;919;48.274;12.292;2022-07-06T08:57:25;3.23;;;2.93;;
1799;SDS011;919;48.274;12.292;2022-07-06T08:59:52;5.73;;;3.43;;
1799;SDS011;919;48.274;12.292;2022-07-06T09:02:20;3.60;;;3.30;;
1799;SDS011;919;48.274;12.292;2022-07-06T09:04:50;5.53;;;3.30;;
1799;SDS011;919;48.274;12.292;2022-07-06T09:07:22;3.30;;;3.10;;
1799;SDS011;919;48.274;12.292;2022-07-06T09:09:50;7.00;;;3.53;;
1799;SDS011;919;48.274;12.292;2022-07-06T09:12:18;3.17;;;2.90;;
1799;SDS011;919;48.274;12.292;2022-07-06T09:14:45;4.60;;;3.53;;
1799;SDS011;919;48.274;12.292;2022-07-06T09:17:11;3.90;;;3.50;;
1799;SDS011;919;48.274;12.292;2022-07-06T09:19:40;3.53;;;3.33;;
1799;SDS011;919;48.274;12.292;2022-07-06T09:22:06;4.17;;;3.87;;
1799;SDS011;919;48.274;12.292;2022-07-06T09:24:34;3.07;;;2.87;;
1799;SDS011;919;48.274;12.292;2022-07-06T09:27:14;5.97;;;3.60;;
1799;SDS011;919;48.274;12.292;2022-07-06T09:29:42;3.80;;;3.40;;
1799;SDS011;919;48.274;12.292;2022-07-06T09:32:09;3.80;;;3.57;;
1799;SDS011;919;48.274;12.292;2022-07-06T09:34:44;3.53;;;3.33;;
1799;SDS011;919;48.274;12.292;2022-07-06T09:37:12;6.10;;;4.07;;
1799;SDS011;919;48.274;12.292;2022-07-06T09:39:39;3.93;;;2.93;;
1799;SDS011;919;48.274;12.292;2022-07-06T09:42:07;3.70;;;3.40;;
1799;SDS011;919;48.274;12.292;2022-07-06T09:44:34;3.70;;;3.40;;
1799;SDS011;919;48.274;12.292;2022-07-06T09:47:02;3.70;;;3.47;;
1799;SDS011;919;48.274;12.292;2022-07-06T09:49:31;3.53;;;3.37;;
1799;SDS011;919;48.274;12.292;2022-07-06T09:51:59;4.13;;;3.73;;
1799;SDS011;919;48.274;12.292;2022-07-06T09:54:27;4.53;;;3.77;;
1799;SDS011;919;48.274;12.292;2022-07-06T09:56:54;4.33;;;3.87;;
1799;SDS011;919;48.274;12.292;2022-07-06T09:59:23;7.37;;;3.70;;
1799;SDS011;919;48.274;12.292;2022-07-06T10:01:51;4.17;;;3.63;;
1799;SDS011;919;48.274;12.292;2022-07-06T10:04:19;3.50;;;3.30;;
1799;SDS011;919;48.274;12.292;2022-07-06T10:06:46;3.90;;;3.60;;
1799;SDS011;919;48.274;12.292;2022-07-06T10:09:16;4.20;;;3.80;;
1799;SDS011;919;48.274;12.292;2022-07-06T10:11:45;3.97;;;3.63;;
1799;SDS011;919;48.274;12.292;2022-07-06T10:14:15;3.90;;;3.60;;
1799;SDS011;919;48.274;12.292;2022-07-06T10:16:44;5.50;;;3.53;;
1799;SDS011;919;48.274;12.292;2022-07-06T10:19:13;4.10;;;3.80;;
1799;SDS011;919;48.274;12.292;2022-07-06T10:21:41;4.00;;;3.70;;
1799;SDS011;919;48.274;12.292;2022-07-06T10:24:08;4.10;;;3.73;;
1799;SDS011;919;48.274;12.292;2022-07-06T10:26:37;13.03;;;4.00;;
1799;SDS011;919;48.274;12.292;2022-07-06T10:29:05;3.67;;;3.43;;
1799;SDS011;919;48.274;12.292;2022-07-06T10:31:33;4.57;;;3.90;;
1799;SDS011;919;48.274;12.292;2022-07-06T10:34:04;3.77;;;3.47;;
1799;SDS011;919;48.274;12.292;2022-07-06T10:36:36;4.73;;;4.43;;
1799;SDS011;919;48.274;12.292;2022-07-06T10:39:04;4.63;;;3.83;;
1799;SDS011;919;48.274;12.292;2022-07-06T10:41:53;4.10;;;3.63;;
1799;SDS011;919;48.274;12.292;2022-07-06T10:44:19;4.00;;;3.50;;
1799;SDS011;919;48.274;12.292;2022-07-06T10:46:52;3.57;;;3.27;;
1799;SDS011;919;48.274;12.292;2022-07-06T10:49:20;3.70;;;3.40;;
1799;SDS011;919;48.274;12.292;2022-07-06T10:51:48;4.17;;;3.73;;
1799;SDS011;919;48.274;12.292;2022-07-06T10:54:15;4.03;;;3.73;;
1799;SDS011;919;48.274;12.292;2022-07-06T10:56:44;4.20;;;3.87;;
1799;SDS011;919;48.274;12.292;2022-07-06T10:59:14;4.37;;;4.00;;
1799;SDS011;919;48.274;12.292;2022-07-06T11:04:39;3.43;;;3.17;;
1799;SDS011;919;48.274;12.292;2022-07-06T11:07:08;3.67;;;3.47;;
1799;SDS011;919;48.274;12.292;2022-07-06T11:09:36;3.20;;;3.00;;
1799;SDS011;919;48.274;12.292;2022-07-06T11:12:11;3.37;;;3.17;;
1799;SDS011;919;48.274;12.292;2022-07-06T11:14:42;3.60;;;3.30;;
1799;SDS011;919;48.274;12.292;2022-07-06T11:17:09;3.63;;;3.33;;
1799;SDS011;919;48.274;12.292;2022-07-06T11:19:37;3.43;;;3.10;;
1799;SDS011;919;48.274;12.292;2022-07-06T11:22:07;2.97;;;2.77;;
1799;SDS011;919;48.274;12.292;2022-07-06T11:24:36;3.00;;;2.80;;
1799;SDS011;919;48.274;12.292;2022-07-06T11:27:04;3.23;;;3.03;;
1799;SDS011;919;48.274;12.292;2022-07-06T11:29:32;3.87;;;3.57;;
1799;SDS011;919;48.274;12.292;2022-07-06T11:32:03;3.23;;;3.03;;
1799;SDS011;919;48.274;12.292;2022-07-06T11:34:31;3.37;;;3.07;;
1799;SDS011;919;48.274;12.292;2022-07-06T11:37:00;3.33;;;3.13;;
1799;SDS011;919;48.274;12.292;2022-07-06T11:39:28;3.00;;;2.80;;
1799;SDS011;919;48.274;12.292;2022-07-06T11:41:56;3.20;;;3.00;;
1799;SDS011;919;48.274;12.292;2022-07-06T11:44:23;3.80;;;3.50;;
1799;SDS011;919;48.274;12.292;2022-07-06T11:46:50;3.10;;;2.90;;
1799;SDS011;919;48.274;12.292;2022-07-06T11:49:18;3.40;;;3.10;;
1799;SDS011;919;48.274;12.292;2022-07-06T11:51:46;4.13;;;3.77;;
1799;SDS011;919;48.274;12.292;2022-07-06T11:54:13;3.07;;;2.90;;
1799;SDS011;919;48.274;12.292;2022-07-06T11:56:45;3.40;;;3.20;;
1799;SDS011;919;48.274;12.292;2022-07-06T11:59:13;2.83;;;2.73;;
1799;SDS011;919;48.274;12.292;2022-07-06T12:01:41;3.30;;;3.10;;
1799;SDS011;919;48.274;12.292;2022-07-06T12:04:09;3.07;;;2.87;;
1799;SDS011;919;48.274;12.292;2022-07-06T12:06:38;3.20;;;2.90;;
1799;SDS011;919;48.274;12.292;2022-07-06T12:09:04;2.70;;;2.50;;
1799;SDS011;919;48.274;12.292;2022-07-06T12:11:33;3.27;;;2.93;;
1799;SDS011;919;48.274;12.292;2022-07-06T12:14:02;3.13;;;2.73;;
1799;SDS011;919;48.274;12.292;2022-07-06T12:16:29;5.90;;;2.67;;
1799;SDS011;919;48.274;12.292;2022-07-06T12:18:59;3.80;;;2.93;;
1799;SDS011;919;48.274;12.292;2022-07-06T12:21:27;2.60;;;2.40;;
1799;SDS011;919;48.274;12.292;2022-07-06T12:23:55;3.03;;;2.83;;
1799;SDS011;919;48.274;12.292;2022-07-06T12:26:23;3.23;;;3.03;;
1799;SDS011;919;48.274;12.292;2022-07-06T12:29:00;4.03;;;3.10;;
1799;SDS011;919;48.274;12.292;2022-07-06T12:31:30;2.90;;;2.70;;
1799;SDS011;919;48.274;12.292;2022-07-06T12:33:58;3.43;;;3.13;;
1799;SDS011;919;48.274;12.292;2022-07-06T12:36:25;3.20;;;2.90;;
1799;SDS011;919;48.274;12.292;2022-07-06T12:38:52;2.90;;;2.70;;
1799;SDS011;919;48.274;12.292;2022-07-06T12:41:30;3.30;;;3.10;;
1799;SDS011;919;48.274;12.292;2022-07-06T12:44:02;2.93;;;2.73;;
1799;SDS011;919;48.274;12.292;2022-07-06T12:46:33;3.03;;;2.70;;
1799;SDS011;919;48.274;12.292;2022-07-06T12:49:02;2.90;;;2.70;;
1799;SDS011;919;48.274;12.292;2022-07-06T12:51:48;3.80;;;2.73;;
1799;SDS011;919;48.274;12.292;2022-07-06T12:54:26;3.03;;;2.83;;
1799;SDS011;919;48.274;12.292;2022-07-06T12:56:56;3.33;;;3.13;;
1799;SDS011;919;48.274;12.292;2022-07-06T12:59:32;2.80;;;2.60;;
1799;SDS011;919;48.274;12.292;2022-07-06T13:02:01;2.57;;;2.40;;
1799;SDS011;919;48.274;12.292;2022-07-06T13:04:28;2.90;;;2.50;;
1799;SDS011;919;48.274;12.292;2022-07-06T13:06:57;2.63;;;2.50;;
1799;SDS011;919;48.274;12.292;2022-07-06T13:09:24;3.00;;;2.80;;
1799;SDS011;919;48.274;12.292;2022-07-06T13:11:51;2.53;;;2.33;;
1799;SDS011;919;48.274;12.292;2022-07-06T13:14:19;2.97;;;2.67;;
1799;SDS011;919;48.274;12.292;2022-07-06T13:16:46;2.40;;;2.30;;
1799;SDS011;919;48.274;12.292;2022-07-06T13:19:14;2.90;;;2.43;;
1799;SDS011;919;48.274;12.292;2022-07-06T13:21:41;6.57;;;4.03;;
1799;SDS011;919;48.274;12.292;2022-07-06T13:24:09;2.47;;;2.30;;
1799;SDS011;919;48.274;12.292;2022-07-06T13:26:36;2.97;;;2.77;;
1799;SDS011;919;48.274;12.292;2022-07-06T13:29:03;2.63;;;2.33;;
1799;SDS011;919;48.274;12.292;2022-07-06T13:31:31;2.80;;;2.60;;
1799;SDS011;919;48.274;12.292;2022-07-06T13:33:58;2.53;;;2.43;;
1799;SDS011;919;48.274;12.292;2022-07-06T13:36:25;3.57;;;2.50;;
1799;SDS011;919;48.274;12.292;2022-07-06T13:38:51;2.73;;;2.60;;
1799;SDS011;919;48.274;12.292;2022-07-06T13:41:18;3.20;;;3.00;;
1799;SDS011;919;48.274;12.292;2022-07-06T13:43:45;3.27;;;2.83;;
1799;SDS011;919;48.274;12.292;2022-07-06T13:46:11;2.37;;;2.27;;
1799;SDS011;919;48.274;12.292;2022-07-06T13:48:40;2.90;;;2.13;;
1799;SDS011;919;48.274;12.292;2022-07-06T13:51:06;2.27;;;2.10;;
1799;SDS011;919;48.274;12.292;2022-07-06T13:53:33;2.47;;;2.30;;
1799;SDS011;919;48.274;12.292;2022-07-06T13:56:01;2.20;;;2.00;;
1799;SDS011;919;48.274;12.292;2022-07-06T13:58:27;2.27;;;2.17;;
1799;SDS011;919;48.274;12.292;2022-07-06T14:00:54;2.40;;;2.30;;
1799;SDS011;919;48.274;12.292;2022-07-06T14:03:21;1.90;;;1.80;;
1799;SDS011;919;48.274;12.292;2022-07-06T14:05:54;2.20;;;2.10;;
1799;SDS011;919;48.274;12.292;2022-07-06T14:08:21;2.23;;;2.13;;
1799;SDS011;919;48.274;12.292;2022-07-06T14:10:48;1.90;;;1.80;;
1799;SDS011;919;48.274;12.292;2022-07-06T14:13:14;2.10;;;2.00;;
1799;SDS011;919;48.274;12.292;2022-07-06T14:15:41;2.37;;;2.00;;
1799;SDS011;919;48.274;12.292;2022-07-06T14:18:09;2.50;;;2.30;;
1799;SDS011;919;48.274;12.292;2022-07-06T14:20:35;3.43;;;2.10;;
1799;SDS011;919;48.274;12.292;2022-07-06T14:23:03;2.30;;;2.03;;
1799;SDS011;919;48.274;12.292;2022-07-06T14:25:30;6.23;;;2.10;;
1799;SDS011;919;48.274;12.292;2022-07-06T14:27:57;3.40;;;2.20;;
1799;SDS011;919;48.274;12.292;2022-07-06T14:30:24;2.77;;;2.43;;
1799;SDS011;919;48.274;12.292;2022-07-06T14:32:51;1.90;;;1.80;;
1799;SDS011;919;48.274;12.292;2022-07-06T14:35:18;2.33;;;2.23;;
1799;SDS011;919;48.274;12.292;2022-07-06T14:37:45;2.40;;;2.10;;
1799;SDS011;919;48.274;12.292;2022-07-06T14:40:14;2.10;;;2.00;;
1799;SDS011;919;48.274;12.292;2022-07-06T14:42:41;2.33;;;2.23;;
1799;SDS011;919;48.274;12.292;2022-07-06T14:45:09;2.90;;;2.03;;
1799;SDS011;919;48.274;12.292;2022-07-06T14:47:36;2.33;;;2.23;;
1799;SDS011;919;48.274;12.292;2022-07-06T14:50:03;4.83;;;2.40;;
1799;SDS011;919;48.274;12.292;2022-07-06T14:52:30;3.80;;;1.63;;
1799;SDS011;919;48.274;12.292;2022-07-06T14:54:57;1.97;;;1.87;;
1799;SDS011;919;48.274;12.292;2022-07-06T14:57:26;2.27;;;2.07;;
1799;SDS011;919;48.274;12.292;2022-07-06T14:59:52;2.03;;;1.93;;
1799;SDS011;919;48.274;12.292;2022-07-06T15:02:19;3.23;;;1.97;;
1799;SDS011;919;48.274;12.292;2022-07-06T15:04:46;2.07;;;1.97;;
1799;SDS011;919;48.274;12.292;2022-07-06T15:07:12;1.67;;;1.57;;
1799;SDS011;919;48.274;12.292;2022-07-06T15:09:39;2.13;;;1.93;;
1799;SDS011;919;48.274;12.292;2022-07-06T15:12:07;2.10;;;2.00;;
1799;SDS011;919;48.274;12.292;2022-07-06T15:14:35;2.20;;;1.60;;
1799;SDS011;919;48.274;12.292;2022-07-06T15:17:02;2.00;;;1.90;;
1799;SDS011;919;48.274;12.292;2022-07-06T15:19:29;2.30;;;2.10;;
1799;SDS011;919;48.274;12.292;2022-07-06T15:21:56;1.93;;;1.83;;